Time;durP1;ratioP1;P1;durP2;ratioP2;P2;SDS_P1;SDS_P2;PMS_P1;PMS_P2;Temp;Humidity;BMP_temperature;BMP_pressure;BME280_temperature;BME280_humidity;BME280_pressure;Samples;Min_cycle;Max_cycle;Signal;HPM_P1;HPM_P2
2022/03/22 00:01:27;;;;;;;20.73;10.10;;;0.00;32.60;;;;;;5095514;27;46410;-62
2022/03/22 00:03:52;;;;;;;23.57;10.20;;;0.00;32.70;;;;;;5101981;27;46372;-63
2022/03/22 00:06:19;;;;;;;21.53;10.30;;;-0.10;32.60;;;;;;5103097;27;46404;-64
2022/03/22 00:08:48;;;;;;;26.27;10.43;;;0.00;32.60;;;;;;5104162;27;45869;-62
2022/03/22 00:11:15;;;;;;;20.40;9.82;;;0.00;32.60;;;;;;5118121;27;46403;-64
2022/03/22 00:13:43;;;;;;;18.98;10.10;;;0.10;32.60;;;;;;5112909;27;46412;-64
2022/03/22 00:16:09;;;;;;;19.23;10.68;;;0.10;32.70;;;;;;5103727;27;46403;-64
2022/03/22 00:18:35;;;;;;;20.20;10.30;;;0.10;32.60;;;;;;5103872;27;46314;-63
2022/03/22 00:21:01;;;;;;;21.30;10.95;;;0.10;32.70;;;;;;5103451;27;48793;-64
2022/03/22 00:23:28;;;;;;;22.60;11.00;;;0.10;32.80;;;;;;5102110;27;46433;-64
2022/03/22 00:25:54;;;;;;;19.60;10.90;;;0.10;32.80;;;;;;5102739;27;46541;-62
2022/03/22 00:28:20;;;;;;;23.60;12.57;;;0.10;32.90;;;;;;5087925;27;46296;-63
2022/03/22 00:30:45;;;;;;;24.70;11.53;;;0.10;33.00;;;;;;5091674;27;46501;-63
2022/03/22 00:33:11;;;;;;;21.37;11.00;;;0.10;33.20;;;;;;5101820;27;46276;-64
2022/03/22 00:35:39;;;;;;;23.43;10.97;;;0.00;33.30;;;;;;5103481;27;46407;-64
2022/03/22 00:38:13;;;;;;;28.42;11.98;;;-0.10;33.50;;;;;;5102978;27;46296;-63
2022/03/22 00:40:40;;;;;;;19.83;9.80;;;-0.20;33.70;;;;;;5103474;27;46454;-64
2022/03/22 00:43:06;;;;;;;22.60;11.05;;;-0.30;33.80;;;;;;5104231;27;46404;-64
2022/03/22 00:45:33;;;;;;;24.77;11.38;;;-0.40;34.00;;;;;;5103955;27;46361;-62
2022/03/22 00:48:00;;;;;;;21.65;10.98;;;-0.40;34.10;;;;;;5103489;27;46514;-64
2022/03/22 00:50:29;;;;;;;26.55;11.27;;;-0.40;34.00;;;;;;5104029;27;47887;-64
2022/03/22 00:52:56;;;;;;;25.30;10.48;;;-0.40;34.10;;;;;;5096035;27;46697;-64
2022/03/22 00:55:23;;;;;;;17.58;10.43;;;-0.50;34.10;;;;;;5101835;27;46538;-63
2022/03/22 00:57:50;;;;;;;21.17;10.50;;;-0.50;34.20;;;;;;5104757;27;46479;-64
2022/03/22 01:00:17;;;;;;;23.70;11.98;;;-0.50;34.30;;;;;;5104680;27;48977;-63
2022/03/22 01:02:50;;;;;;;19.35;10.68;;;-0.50;34.40;;;;;;5103232;27;46335;-64
2022/03/22 01:05:19;;;;;;;19.58;10.77;;;-0.50;34.20;;;;;;5104087;27;46390;-66
2022/03/22 01:07:51;;;;;;;22.63;10.50;;;-0.40;34.30;;;;;;5103905;27;46539;-65
2022/03/22 01:10:20;;;;;;;25.95;11.23;;;-0.40;34.20;;;;;;5101334;27;47970;-65
2022/03/22 01:12:47;;;;;;;20.70;11.43;;;-0.40;34.30;;;;;;5112207;27;46651;-63
2022/03/22 01:15:23;;;;;;;19.23;10.52;;;-0.40;34.20;;;;;;5101052;27;46461;-65
2022/03/22 01:17:51;;;;;;;21.50;10.65;;;-0.40;34.20;;;;;;5100750;27;46426;-63
2022/03/22 01:20:20;;;;;;;20.05;10.38;;;-0.40;34.20;;;;;;5101291;27;48023;-63
2022/03/22 01:22:47;;;;;;;20.00;10.90;;;-0.40;34.30;;;;;;5103518;27;46522;-64
2022/03/22 01:25:17;;;;;;;24.48;10.65;;;-0.40;34.30;;;;;;5102623;27;46522;-64
2022/03/22 01:27:46;;;;;;;21.73;11.13;;;-0.40;34.50;;;;;;5105166;27;46602;-64
2022/03/22 01:30:13;;;;;;;17.73;10.77;;;-0.40;34.50;;;;;;5104088;27;46466;-64
2022/03/22 01:32:39;;;;;;;18.42;10.77;;;-0.50;34.70;;;;;;5111069;27;46349;-64
2022/03/22 01:35:08;;;;;;;25.92;12.07;;;-0.60;34.70;;;;;;5103004;27;46488;-63
2022/03/22 01:37:34;;;;;;;21.98;10.88;;;-0.60;34.90;;;;;;5103228;27;46264;-64
2022/03/22 01:39:59;;;;;;;19.83;10.90;;;-0.60;34.90;;;;;;5102904;27;48146;-64
2022/03/22 01:42:29;;;;;;;17.73;10.57;;;-0.60;35.00;;;;;;5102103;27;46427;-63
2022/03/22 01:44:54;;;;;;;22.17;10.10;;;-0.70;35.10;;;;;;5101948;27;46399;-64
2022/03/22 01:47:23;;;;;;;17.63;9.83;;;-0.70;35.20;;;;;;5102084;27;46551;-63
2022/03/22 01:49:50;;;;;;;24.67;11.77;;;-0.80;35.30;;;;;;5103020;27;46349;-64
2022/03/22 01:52:19;;;;;;;19.27;10.50;;;-0.80;35.30;;;;;;5101510;27;46662;-64
2022/03/22 01:54:51;;;;;;;22.92;12.27;;;-0.80;35.30;;;;;;5113593;27;46512;-63
2022/03/22 01:57:22;;;;;;;21.95;12.25;;;-0.80;35.30;;;;;;5101016;27;46465;-64
2022/03/22 01:59:49;;;;;;;22.95;12.52;;;-0.70;35.50;;;;;;5110984;27;46624;-64
2022/03/22 02:07:49;;;;;;;20.95;11.70;;;-0.80;35.50;;;;;;5119093;27;46545;-64
2022/03/22 02:10:15;;;;;;;24.65;12.70;;;-0.80;35.60;;;;;;5102021;27;48037;-63
2022/03/22 02:12:44;;;;;;;21.75;11.20;;;-0.90;35.60;;;;;;5101071;27;46235;-64
2022/03/22 02:15:11;;;;;;;24.30;12.05;;;-1.00;35.80;;;;;;5103677;27;45792;-64
2022/03/22 02:17:38;;;;;;;18.15;11.02;;;-1.10;36.00;;;;;;5104355;27;46628;-65
2022/03/22 02:20:04;;;;;;;22.33;11.68;;;-1.20;36.00;;;;;;5108915;27;47127;-64
2022/03/22 02:22:40;;;;;;;41.72;12.85;;;-1.20;36.10;;;;;;5102091;27;46349;-64
2022/03/22 02:25:15;;;;;;;26.30;12.57;;;-1.10;36.20;;;;;;5103530;27;46377;-64
2022/03/22 02:27:44;;;;;;;21.98;11.15;;;-1.10;36.00;;;;;;5099262;27;46278;-64
2022/03/22 02:30:12;;;;;;;25.60;11.60;;;-1.10;35.90;;;;;;5101668;27;48104;-64
2022/03/22 02:32:38;;;;;;;22.08;10.15;;;-1.00;35.90;;;;;;5095398;27;46750;-65
2022/03/22 02:35:05;;;;;;;22.35;12.20;;;-1.00;35.80;;;;;;5102111;27;46655;-64
2022/03/22 02:37:31;;;;;;;22.40;11.88;;;-1.00;35.90;;;;;;5102671;27;46378;-64
2022/03/22 02:39:57;;;;;;;22.07;11.20;;;-1.00;35.90;;;;;;5101528;27;47476;-64
2022/03/22 02:42:22;;;;;;;23.87;11.23;;;-1.10;36.00;;;;;;5100578;27;46416;-65
2022/03/22 02:44:48;;;;;;;20.97;11.70;;;-1.20;36.20;;;;;;5101585;27;46472;-64
2022/03/22 02:47:14;;;;;;;24.70;12.47;;;-1.20;36.30;;;;;;5110272;27;46537;-64
2022/03/22 02:49:39;;;;;;;19.47;10.30;;;-1.20;36.40;;;;;;5102490;27;48841;-65
2022/03/22 02:52:06;;;;;;;21.67;10.60;;;-1.20;36.30;;;;;;5106347;27;46405;-66
2022/03/22 02:54:31;;;;;;;21.45;11.40;;;-1.30;36.40;;;;;;5100044;27;46552;-65
2022/03/22 02:56:57;;;;;;;28.70;10.27;;;-1.40;36.60;;;;;;5100090;27;46470;-64
2022/03/22 02:59:23;;;;;;;20.07;10.97;;;-1.50;36.60;;;;;;5112601;27;46410;-64
2022/03/22 03:01:49;;;;;;;21.17;10.80;;;-1.70;36.90;;;;;;5101211;27;46424;-65
2022/03/22 03:04:14;;;;;;;20.30;10.73;;;-1.80;36.90;;;;;;5094991;27;46561;-65
2022/03/22 03:06:40;;;;;;;20.67;11.03;;;-1.80;36.90;;;;;;5103538;27;46347;-64
2022/03/22 03:09:06;;;;;;;20.17;11.10;;;-1.70;37.00;;;;;;5095150;27;47902;-63
2022/03/22 03:11:31;;;;;;;24.30;13.07;;;-1.70;36.90;;;;;;5094510;27;45908;-64
2022/03/22 03:16:41;;;;;;;22.38;11.93;;;-1.60;36.90;;;;;;5111876;27;46409;-63
2022/03/22 03:19:07;;;;;;;18.10;10.93;;;-1.60;36.80;;;;;;5094571;27;47124;-65
2022/03/22 03:21:34;;;;;;;21.92;10.68;;;-1.60;36.80;;;;;;5097903;27;46691;-64
2022/03/22 03:24:00;;;;;;;22.02;11.27;;;-1.50;36.80;;;;;;5076068;27;46519;-64
2022/03/22 03:26:26;;;;;;;27.60;11.70;;;-1.50;36.80;;;;;;5099186;27;46976;-65
2022/03/22 03:28:52;;;;;;;24.87;12.10;;;-1.50;36.80;;;;;;5095251;27;47979;-66
2022/03/22 03:31:17;;;;;;;26.30;12.47;;;-1.50;36.80;;;;;;5096332;27;46582;-65
2022/03/22 03:33:43;;;;;;;22.13;11.33;;;-1.50;36.90;;;;;;5115315;27;46506;-65
2022/03/22 03:36:09;;;;;;;20.60;11.33;;;-1.50;36.90;;;;;;5128832;27;45908;-64
2022/03/22 03:38:41;;;;;;;21.30;12.10;;;-1.50;36.90;;;;;;5105739;27;47970;-64
2022/03/22 03:43:56;;;;;;;22.90;12.15;;;-1.80;37.40;;;;;;5116764;27;46396;-65
2022/03/22 03:49:08;;;;;;;27.98;13.02;;;-1.90;37.80;;;;;;5113576;27;46750;-65
2022/03/22 03:51:35;;;;;;;29.42;13.50;;;-2.00;37.90;;;;;;5116677;27;46584;-64
2022/03/22 03:54:02;;;;;;;27.52;11.88;;;-1.90;38.00;;;;;;5130748;27;46553;-64
2022/03/22 03:56:28;;;;;;;23.02;11.55;;;-1.90;38.00;;;;;;5100599;27;46382;-65
2022/03/22 03:58:56;;;;;;;23.63;13.70;;;-1.80;37.80;;;;;;5102680;27;47922;-66
2022/03/22 04:01:22;;;;;;;26.00;13.18;;;-1.80;37.80;;;;;;5099771;27;46545;-64
2022/03/22 04:03:48;;;;;;;24.92;13.07;;;-1.70;37.80;;;;;;5101289;27;46422;-65
2022/03/22 04:06:14;;;;;;;28.73;14.60;;;-1.70;37.80;;;;;;5105270;27;45810;-66
2022/03/22 04:08:40;;;;;;;27.07;13.23;;;-1.60;37.90;;;;;;5104586;27;47745;-67
2022/03/22 04:11:06;;;;;;;24.80;12.73;;;-1.60;37.90;;;;;;5103453;27;46214;-64
2022/03/22 04:13:35;;;;;;;22.70;12.63;;;-1.60;38.30;;;;;;5104046;27;46426;-64
2022/03/22 04:16:01;;;;;;;22.88;12.15;;;-1.60;38.30;;;;;;5104536;27;46540;-64
2022/03/22 04:18:27;;;;;;;27.00;13.73;;;-1.60;38.40;;;;;;5106622;27;46777;-65
2022/03/22 04:20:52;;;;;;;32.63;16.27;;;-1.60;38.80;;;;;;5104513;27;46372;-64
2022/03/22 04:23:18;;;;;;;34.10;16.73;;;-1.60;38.80;;;;;;5104067;27;46135;-64
2022/03/22 04:25:44;;;;;;;23.00;13.17;;;-1.50;39.00;;;;;;5114568;27;46354;-64
2022/03/22 04:33:37;;;;;;;30.38;13.90;;;-1.40;39.40;;;;;;5115633;27;46525;-64
2022/03/22 04:36:04;;;;;;;25.67;12.97;;;-1.40;39.50;;;;;;5100954;27;46544;-64
2022/03/22 04:38:30;;;;;;;24.48;13.02;;;-1.40;39.60;;;;;;5104136;27;48770;-64
2022/03/22 04:40:57;;;;;;;24.57;13.27;;;-1.40;39.60;;;;;;5104175;27;46280;-64
2022/03/22 04:43:23;;;;;;;27.00;11.98;;;-1.40;39.60;;;;;;5103572;27;45876;-64
2022/03/22 04:45:48;;;;;;;25.67;12.33;;;-1.40;39.60;;;;;;5104760;27;46415;-64
2022/03/22 04:48:17;;;;;;;23.40;12.00;;;-1.50;39.80;;;;;;5091888;27;46561;-63
2022/03/22 04:50:43;;;;;;;23.33;12.85;;;-1.70;40.10;;;;;;5112960;27;46551;-63
2022/03/22 04:58:37;;;;;;;23.48;11.90;;;-1.80;40.30;;;;;;5114368;27;46556;-64
2022/03/22 05:01:04;;;;;;;30.97;13.87;;;-1.70;40.30;;;;;;5115121;27;46300;-63
2022/03/22 05:03:29;;;;;;;27.48;12.10;;;-1.70;40.10;;;;;;5103552;27;46307;-64
2022/03/22 05:08:39;;;;;;;17.83;11.10;;;-1.80;40.40;;;;;;5112994;27;46740;-64
2022/03/22 05:11:05;;;;;;;23.07;11.27;;;-2.00;40.40;;;;;;5102371;27;46387;-63
2022/03/22 05:13:30;;;;;;;19.20;10.33;;;-2.10;40.60;;;;;;5104767;27;46351;-63
2022/03/22 05:15:56;;;;;;;17.23;9.87;;;-2.20;40.70;;;;;;5102131;27;46481;-63
2022/03/22 05:18:22;;;;;;;26.17;10.80;;;-2.20;40.80;;;;;;5092891;27;48941;-65
2022/03/22 05:20:47;;;;;;;20.67;10.73;;;-2.30;40.80;;;;;;5102842;27;46428;-64
2022/03/22 05:23:13;;;;;;;25.03;10.07;;;-2.30;40.80;;;;;;5103203;27;46455;-64
2022/03/22 05:25:39;;;;;;;20.57;10.70;;;-2.30;40.80;;;;;;5112751;27;46334;-64
2022/03/22 05:28:04;;;;;;;19.23;10.63;;;-2.20;40.80;;;;;;5100324;27;48778;-64
2022/03/22 05:30:31;;;;;;;19.43;10.67;;;-2.20;40.70;;;;;;5101028;27;45874;-64
2022/03/22 05:32:57;;;;;;;21.70;10.13;;;-2.20;40.50;;;;;;5101771;27;46409;-65
2022/03/22 05:35:23;;;;;;;20.70;10.87;;;-2.10;40.60;;;;;;5102069;27;46485;-65
2022/03/22 05:37:50;;;;;;;18.92;10.75;;;-2.10;40.50;;;;;;5101352;27;46543;-65
2022/03/22 05:40:17;;;;;;;20.70;10.98;;;-2.10;40.70;;;;;;5092001;27;46287;-64
2022/03/22 05:42:43;;;;;;;24.55;11.60;;;-2.00;41.00;;;;;;5102276;27;46520;-64
2022/03/22 05:45:11;;;;;;;21.52;10.25;;;-1.70;42.20;;;;;;5103089;27;46483;-62
2022/03/22 05:47:38;;;;;;;26.25;9.57;;;-1.40;42.80;;;;;;5112655;27;48229;-63
2022/03/22 05:50:05;;;;;;;18.55;9.85;;;-1.20;42.80;;;;;;5104027;27;46480;-65
2022/03/22 05:52:32;;;;;;;28.75;13.50;;;-1.00;42.00;;;;;;5101332;27;46417;-64
2022/03/22 05:54:57;;;;;;;25.20;14.23;;;-0.90;41.10;;;;;;5102034;27;46531;-65
2022/03/22 05:57:23;;;;;;;31.23;15.43;;;-0.90;40.20;;;;;;5102604;27;48311;-64
2022/03/22 05:59:49;;;;;;;28.27;13.47;;;-0.90;40.00;;;;;;5102392;27;46456;-63
2022/03/22 06:02:17;;;;;;;26.47;12.07;;;-0.90;39.90;;;;;;5110974;27;46448;-65
2022/03/22 06:04:44;;;;;;;25.88;12.65;;;-0.80;40.10;;;;;;5103451;27;46501;-62
2022/03/22 06:07:10;;;;;;;17.63;10.77;;;-0.70;40.60;;;;;;5085885;27;48816;-64
2022/03/22 06:09:35;;;;;;;23.23;10.17;;;-0.30;41.10;;;;;;5103164;27;46426;-65
2022/03/22 06:12:01;;;;;;;18.90;10.10;;;0.10;40.00;;;;;;5110319;27;46436;-63
2022/03/22 06:14:27;;;;;;;17.70;10.33;;;0.40;39.20;;;;;;5092488;27;45928;-64
2022/03/22 06:16:52;;;;;;;27.40;10.80;;;0.40;38.90;;;;;;5102957;27;47893;-66
2022/03/22 06:19:18;;;;;;;21.90;11.87;;;0.40;38.60;;;;;;5104840;27;46600;-64
2022/03/22 06:21:44;;;;;;;30.80;12.73;;;0.50;38.60;;;;;;5113231;27;46412;-63
2022/03/22 06:24:10;;;;;;;25.73;13.00;;;0.50;38.60;;;;;;5102813;27;46510;-63
2022/03/22 06:26:36;;;;;;;30.17;12.80;;;0.60;38.70;;;;;;5101447;27;48165;-63
2022/03/22 06:29:02;;;;;;;24.80;13.77;;;0.70;38.70;;;;;;5086910;27;46410;-64
2022/03/22 06:31:33;;;;;;;26.63;13.43;;;0.90;38.80;;;;;;5099180;27;46378;-64
2022/03/22 06:34:00;;;;;;;25.88;12.15;;;1.10;38.60;;;;;;5095282;27;45916;-64
2022/03/22 06:36:28;;;;;;;31.85;13.85;;;1.30;38.60;;;;;;5102890;27;46365;-65
2022/03/22 06:38:53;;;;;;;30.98;14.75;;;1.60;38.70;;;;;;5103252;27;46566;-66
2022/03/22 06:41:19;;;;;;;28.80;15.40;;;1.90;38.80;;;;;;5105837;27;46471;-65
2022/03/22 06:43:45;;;;;;;21.90;13.47;;;2.10;38.90;;;;;;5104393;27;46366;-66
2022/03/22 06:46:10;;;;;;;24.53;13.43;;;2.30;38.80;;;;;;5104090;27;48088;-65
2022/03/22 06:48:36;;;;;;;26.67;13.23;;;2.40;38.90;;;;;;5106122;27;46836;-65
2022/03/22 06:51:02;;;;;;;27.93;13.50;;;2.60;38.90;;;;;;5104739;27;46428;-65
2022/03/22 06:53:28;;;;;;;27.70;14.57;;;2.80;39.00;;;;;;5105395;27;46480;-65
2022/03/22 06:55:54;;;;;;;26.20;14.13;;;3.00;39.20;;;;;;5103781;27;46606;-64
2022/03/22 06:58:22;;;;;;;32.23;14.87;;;3.20;39.30;;;;;;5096728;27;45789;-65
2022/03/22 07:00:48;;;;;;;29.48;15.75;;;3.30;39.30;;;;;;5105626;27;46436;-65
2022/03/22 07:03:14;;;;;;;28.77;15.77;;;3.50;39.60;;;;;;5105323;27;46412;-65
2022/03/22 07:05:42;;;;;;;28.73;15.57;;;3.70;39.70;;;;;;5105591;27;46284;-65
2022/03/22 07:08:08;;;;;;;28.65;15.10;;;3.90;39.50;;;;;;5105611;27;46349;-65
2022/03/22 07:10:34;;;;;;;27.73;14.50;;;4.10;39.50;;;;;;5104508;27;45928;-65
2022/03/22 07:13:04;;;;;;;23.90;12.95;;;4.20;39.50;;;;;;5104447;27;46389;-65
2022/03/22 07:15:37;;;;;;;24.52;14.00;;;4.30;39.70;;;;;;5110170;27;48048;-65
2022/03/22 07:18:08;;;;;;;23.08;13.60;;;4.40;39.90;;;;;;5105678;27;46441;-65
2022/03/22 07:20:35;;;;;;;34.77;15.33;;;4.40;39.90;;;;;;5102269;27;46535;-65
2022/03/22 07:23:01;;;;;;;34.23;14.57;;;4.60;39.90;;;;;;5103678;27;46560;-64
2022/03/22 07:25:27;;;;;;;25.43;14.77;;;4.80;39.80;;;;;;5104389;27;46467;-64
2022/03/22 07:27:54;;;;;;;26.55;14.27;;;5.00;39.80;;;;;;5100167;27;46446;-65
2022/03/22 07:30:20;;;;;;;26.50;14.40;;;5.10;39.40;;;;;;5107380;27;46295;-64
2022/03/22 07:32:47;;;;;;;24.17;14.20;;;5.20;39.40;;;;;;5116804;27;46672;-64
2022/03/22 07:35:14;;;;;;;24.20;14.10;;;5.40;39.30;;;;;;5105332;27;46390;-63
2022/03/22 07:37:40;;;;;;;25.17;14.17;;;5.40;39.40;;;;;;5118790;27;46453;-66
2022/03/22 07:40:08;;;;;;;23.37;13.70;;;5.60;39.20;;;;;;5103898;27;46361;-64
2022/03/22 07:42:34;;;;;;;26.67;14.50;;;5.60;39.40;;;;;;5104564;27;46370;-64
2022/03/22 07:45:03;;;;;;;28.33;14.43;;;5.70;39.00;;;;;;5102866;27;47734;-65
2022/03/22 07:47:29;;;;;;;22.07;13.27;;;5.90;38.70;;;;;;5103400;27;46431;-65
2022/03/22 07:53:00;;;;;;;26.80;15.17;;;6.00;38.60;;;;;;5110811;27;46325;-63
2022/03/22 07:55:30;;;;;;;32.40;15.00;;;6.20;38.30;;;;;;5103096;27;49150;-65
2022/03/22 07:57:57;;;;;;;24.10;13.60;;;6.40;38.00;;;;;;5100364;27;46247;-65
2022/03/22 08:00:27;;;;;;;23.27;13.70;;;6.40;37.80;;;;;;5103404;27;46428;-65
2022/03/22 08:02:57;;;;;;;27.93;14.60;;;6.60;37.90;;;;;;5104481;27;46250;-64
2022/03/22 08:05:25;;;;;;;25.77;14.60;;;6.60;37.80;;;;;;5104027;27;46357;-63
2022/03/22 08:07:51;;;;;;;24.73;13.93;;;6.50;37.70;;;;;;5104059;27;46438;-65
2022/03/22 08:10:17;;;;;;;24.53;13.40;;;6.70;37.40;;;;;;5103583;27;46367;-64
2022/03/22 08:12:43;;;;;;;23.33;13.83;;;6.70;37.50;;;;;;5103882;27;46504;-64
2022/03/22 08:15:10;;;;;;;24.83;13.37;;;7.00;37.10;;;;;;5103682;27;47798;-64
2022/03/22 08:17:39;;;;;;;23.07;13.70;;;7.20;37.10;;;;;;5107763;27;46348;-64
2022/03/22 08:20:07;;;;;;;30.63;15.07;;;7.30;37.10;;;;;;5095387;27;46446;-64
2022/03/22 08:22:49;;;;;;;26.43;13.20;;;7.60;36.90;;;;;;5096428;27;46353;-63
2022/03/22 08:25:16;;;;;;;26.50;14.50;;;7.70;36.50;;;;;;5092930;27;46832;-64
2022/03/22 08:27:42;;;;;;;24.57;13.30;;;7.80;36.30;;;;;;5099783;27;46568;-63
2022/03/22 08:30:09;;;;;;;23.67;14.37;;;8.00;36.20;;;;;;5096617;27;46424;-63
2022/03/22 08:32:35;;;;;;;27.57;13.20;;;8.10;36.00;;;;;;5097904;27;46725;-63
2022/03/22 08:35:01;;;;;;;21.20;12.80;;;8.10;35.90;;;;;;5129606;27;46382;-65
2022/03/22 08:37:27;;;;;;;23.53;13.60;;;8.10;35.80;;;;;;5103008;27;46731;-64
2022/03/22 08:39:53;;;;;;;20.67;12.40;;;8.30;35.60;;;;;;5103632;27;46505;-64
2022/03/22 08:42:19;;;;;;;27.80;13.20;;;8.30;35.10;;;;;;5103594;27;46422;-64
2022/03/22 08:44:44;;;;;;;27.03;13.87;;;8.50;35.10;;;;;;5113953;27;46514;-65
2022/03/22 08:47:10;;;;;;;25.13;12.07;;;8.60;34.80;;;;;;5103908;27;46374;-64
2022/03/22 08:49:36;;;;;;;26.83;12.97;;;8.60;34.40;;;;;;5102146;27;46538;-64
2022/03/22 08:52:02;;;;;;;23.10;12.97;;;8.70;34.40;;;;;;5132917;27;46460;-65
2022/03/22 08:54:27;;;;;;;20.30;11.07;;;8.70;34.40;;;;;;5112162;27;46353;-64
2022/03/22 08:56:53;;;;;;;23.90;12.47;;;8.70;34.50;;;;;;5106147;27;46391;-66
2022/03/22 08:59:19;;;;;;;23.30;12.80;;;8.70;33.80;;;;;;5113701;27;46370;-66
2022/03/22 09:01:45;;;;;;;18.63;11.97;;;8.80;33.50;;;;;;5104576;27;46473;-65
2022/03/22 09:06:55;;;;;;;20.70;11.67;;;9.00;33.50;;;;;;5109572;27;46453;-64
2022/03/22 09:09:20;;;;;;;22.20;12.57;;;9.30;33.20;;;;;;5095494;27;46438;-65
2022/03/22 09:11:46;;;;;;;19.20;11.53;;;9.50;32.60;;;;;;5100839;27;46645;-65
2022/03/22 09:14:12;;;;;;;18.50;10.90;;;9.60;32.20;;;;;;5111634;27;46472;-65
2022/03/22 09:16:38;;;;;;;20.33;12.00;;;9.80;31.40;;;;;;5100052;27;46425;-66
2022/03/22 09:19:04;;;;;;;19.63;11.43;;;9.90;31.20;;;;;;5097954;27;46504;-66
2022/03/22 09:21:29;;;;;;;20.23;11.23;;;9.80;31.20;;;;;;5112040;27;46448;-66
2022/03/22 09:23:55;;;;;;;21.27;10.77;;;9.90;30.50;;;;;;5097767;27;48803;-65
2022/03/22 09:26:21;;;;;;;20.07;10.27;;;10.00;29.70;;;;;;5095974;27;47098;-64
2022/03/22 09:28:52;;;;;;;20.47;11.07;;;10.30;29.60;;;;;;5099846;27;46331;-65
2022/03/22 09:31:22;;;;;;;26.47;13.50;;;10.40;29.10;;;;;;5106165;27;46485;-65
2022/03/22 09:33:48;;;;;;;21.70;11.70;;;10.50;29.30;;;;;;5108336;27;46774;-64
2022/03/22 09:36:15;;;;;;;20.73;10.20;;;10.80;29.20;;;;;;5096118;27;46478;-63
2022/03/22 09:38:40;;;;;;;20.30;10.93;;;10.80;28.30;;;;;;5099995;27;46136;-64
2022/03/22 09:41:07;;;;;;;21.87;11.50;;;11.00;28.40;;;;;;5098793;27;46670;-65
2022/03/22 09:43:35;;;;;;;17.77;10.03;;;11.00;28.30;;;;;;5100251;27;48539;-64
2022/03/22 09:46:04;;;;;;;20.90;10.90;;;11.00;27.90;;;;;;5102027;27;46400;-64
2022/03/22 09:48:31;;;;;;;22.00;9.97;;;11.10;27.60;;;;;;5093668;27;46609;-64
2022/03/22 09:53:41;;;;;;;16.53;9.67;;;11.30;27.00;;;;;;5109069;27;46487;-64
2022/03/22 09:56:08;;;;;;;16.00;9.70;;;11.40;27.10;;;;;;5094675;27;46704;-64
2022/03/22 09:58:33;;;;;;;20.10;10.20;;;11.50;27.20;;;;;;5106470;27;46456;-64
2022/03/22 10:00:59;;;;;;;20.30;9.80;;;11.50;27.20;;;;;;5125346;27;46062;-64
2022/03/22 10:03:25;;;;;;;19.63;10.10;;;11.50;26.70;;;;;;5098635;27;48112;-66
2022/03/22 10:06:02;;;;;;;17.50;9.77;;;11.50;26.50;;;;;;5101122;27;46486;-65
2022/03/22 10:08:29;;;;;;;15.50;9.80;;;11.70;26.00;;;;;;5087894;27;46473;-65
2022/03/22 10:10:58;;;;;;;23.03;10.03;;;11.80;26.10;;;;;;5108752;27;46622;-65
2022/03/22 10:13:24;;;;;;;17.50;9.37;;;11.90;25.90;;;;;;5100989;27;48991;-65
2022/03/22 10:15:50;;;;;;;17.33;10.40;;;12.00;25.90;;;;;;5105562;27;46441;-65
2022/03/22 10:18:23;;;;;;;22.73;10.20;;;12.10;26.10;;;;;;5105941;27;46592;-65
2022/03/22 10:21:01;;;;;;;19.60;9.60;;;12.20;24.80;;;;;;5116275;27;45890;-65
2022/03/22 10:23:46;;;;;;;16.63;10.00;;;12.20;24.60;;;;;;5112119;27;46706;-64
2022/03/22 10:26:12;;;;;;;16.77;9.53;;;12.30;24.20;;;;;;5097213;27;46387;-64
2022/03/22 10:28:49;;;;;;;18.57;9.50;;;12.40;24.20;;;;;;5110762;27;46654;-64
2022/03/22 10:31:16;;;;;;;19.17;10.43;;;12.30;24.00;;;;;;5099036;27;46388;-63
2022/03/22 10:33:52;;;;;;;16.50;9.30;;;12.50;23.70;;;;;;5105133;27;47891;-64
2022/03/22 10:36:21;;;;;;;19.57;10.17;;;12.60;23.40;;;;;;5104093;27;46577;-65
2022/03/22 10:38:59;;;;;;;21.93;11.23;;;12.50;23.20;;;;;;5103703;27;46358;-64
2022/03/22 10:41:30;;;;;;;23.23;10.17;;;12.60;23.00;;;;;;5104837;27;46429;-65
2022/03/22 10:44:08;;;;;;;22.47;11.93;;;12.80;23.10;;;;;;5116180;27;46611;-65
2022/03/22 10:46:35;;;;;;;15.60;9.40;;;12.90;22.90;;;;;;5108683;27;46440;-64
2022/03/22 10:49:09;;;;;;;17.10;10.30;;;12.90;22.40;;;;;;5106780;27;45841;-64
2022/03/22 10:51:46;;;;;;;16.23;10.17;;;12.90;22.00;;;;;;5105579;27;46409;-65
2022/03/22 10:54:22;;;;;;;18.13;8.93;;;13.00;21.90;;;;;;5103337;27;48093;-64
2022/03/22 10:56:57;;;;;;;16.13;9.17;;;13.10;21.80;;;;;;5116395;27;46308;-64
2022/03/22 10:59:26;;;;;;;17.10;9.30;;;13.20;20.20;;;;;;5104884;27;46817;-64
2022/03/22 11:01:55;;;;;;;16.33;10.10;;;13.30;20.80;;;;;;5101887;27;46354;-64
2022/03/22 11:04:22;;;;;;;17.13;10.30;;;13.40;21.00;;;;;;5105285;27;48115;-65
2022/03/22 11:06:48;;;;;;;15.97;8.67;;;13.50;20.90;;;;;;5105530;27;46595;-65
2022/03/22 11:09:20;;;;;;;17.03;9.50;;;13.40;20.40;;;;;;5108264;27;46749;-64
2022/03/22 11:11:46;;;;;;;16.80;9.57;;;13.50;20.40;;;;;;5110204;27;46539;-64
2022/03/22 11:14:15;;;;;;;23.13;10.20;;;13.40;19.80;;;;;;5105450;27;48992;-64
2022/03/22 11:16:42;;;;;;;18.10;9.30;;;13.40;19.70;;;;;;5103265;27;46418;-65
2022/03/22 11:19:09;;;;;;;14.53;8.73;;;13.50;20.20;;;;;;5105117;27;46244;-65
2022/03/22 11:21:37;;;;;;;19.90;9.53;;;13.70;20.20;;;;;;5106305;27;46557;-64
2022/03/22 11:24:09;;;;;;;17.70;8.97;;;13.80;19.70;;;;;;5111892;27;48848;-65
2022/03/22 11:26:42;;;;;;;17.43;9.23;;;13.80;19.10;;;;;;5091934;27;46386;-64
2022/03/22 11:29:11;;;;;;;16.80;8.90;;;13.60;18.50;;;;;;5103021;27;46515;-65
2022/03/22 11:31:37;;;;;;;19.10;9.40;;;13.60;18.50;;;;;;5104416;27;46236;-65
2022/03/22 11:34:11;;;;;;;18.80;8.33;;;13.70;18.50;;;;;;5105904;27;49125;-63
2022/03/22 11:36:53;;;;;;;18.40;9.63;;;13.70;17.90;;;;;;5106181;27;46530;-65
2022/03/22 11:42:28;;;;;;;14.80;9.50;;;13.70;17.90;;;;;;5114423;27;46409;-65
2022/03/22 11:44:59;;;;;;;18.63;9.90;;;13.80;18.00;;;;;;5096003;27;47012;-65
2022/03/22 11:47:27;;;;;;;20.07;9.73;;;13.90;18.10;;;;;;5103915;27;45859;-64
2022/03/22 11:49:55;;;;;;;15.03;9.50;;;14.00;17.80;;;;;;5103400;27;46383;-65
2022/03/22 11:52:26;;;;;;;16.80;8.50;;;14.20;18.30;;;;;;5102509;27;46672;-66
2022/03/22 11:55:09;;;;;;;32.63;9.20;;;14.20;17.60;;;;;;5112298;27;48286;-65
2022/03/22 11:57:50;;;;;;;17.17;8.87;;;14.10;17.40;;;;;;5104424;27;46364;-65
2022/03/22 12:00:21;;;;;;;14.30;8.03;;;14.10;17.10;;;;;;5103515;27;46353;-65
2022/03/22 12:02:53;;;;;;;14.57;8.27;;;14.20;17.00;;;;;;5117174;27;46425;-66
2022/03/22 12:05:20;;;;;;;12.93;7.37;;;14.20;16.80;;;;;;5114421;27;46629;-66
2022/03/22 12:07:47;;;;;;;19.00;8.60;;;14.20;16.40;;;;;;5093862;27;46419;-65
2022/03/22 12:10:15;;;;;;;14.80;8.57;;;14.20;16.50;;;;;;5103649;27;46354;-65
2022/03/22 12:12:48;;;;;;;14.63;8.20;;;14.30;16.70;;;;;;5099686;27;45852;-65
2022/03/22 12:15:16;;;;;;;18.67;8.90;;;14.50;16.60;;;;;;5092125;27;47970;-65
2022/03/22 12:17:43;;;;;;;15.90;8.33;;;14.60;16.50;;;;;;5111360;27;46128;-65
2022/03/22 12:20:12;;;;;;;14.77;8.40;;;14.60;15.20;;;;;;5103354;27;45838;-65
2022/03/22 12:22:43;;;;;;;14.67;7.00;;;14.60;15.80;;;;;;5102824;27;46416;-65
2022/03/22 12:25:11;;;;;;;13.33;7.50;;;14.60;15.40;;;;;;5091827;27;48956;-65
2022/03/22 12:27:48;;;;;;;13.70;8.00;;;14.60;15.50;;;;;;5114161;27;46562;-65
2022/03/22 12:30:14;;;;;;;11.57;7.27;;;14.60;15.40;;;;;;5111701;27;45789;-65
2022/03/22 12:32:39;;;;;;;12.53;7.97;;;14.60;14.50;;;;;;5103512;27;46650;-65
2022/03/22 12:35:06;;;;;;;16.43;8.57;;;14.70;15.20;;;;;;5104511;27;48014;-65
2022/03/22 12:37:31;;;;;;;14.57;8.50;;;14.80;15.10;;;;;;5101994;27;46755;-65
2022/03/22 12:39:57;;;;;;;13.37;8.23;;;14.90;15.10;;;;;;5103366;27;46368;-65
2022/03/22 12:42:23;;;;;;;11.90;7.60;;;14.80;14.20;;;;;;5102296;27;46404;-65
2022/03/22 12:44:49;;;;;;;14.90;7.60;;;14.70;14.80;;;;;;5090616;27;47798;-65
2022/03/22 12:47:17;;;;;;;13.90;7.53;;;14.80;14.40;;;;;;5102669;27;46560;-66
2022/03/22 12:49:43;;;;;;;10.80;7.20;;;14.80;14.30;;;;;;5102878;27;46460;-65
2022/03/22 12:52:09;;;;;;;14.43;8.47;;;14.80;14.10;;;;;;5102813;27;46462;-65
2022/03/22 12:54:37;;;;;;;25.33;8.60;;;14.80;14.30;;;;;;5102407;27;47840;-65
2022/03/22 12:57:09;;;;;;;11.87;7.43;;;14.90;13.90;;;;;;5103295;27;46347;-66
2022/03/22 12:59:35;;;;;;;15.37;8.10;;;14.90;14.20;;;;;;5102779;27;46442;-65
2022/03/22 13:02:06;;;;;;;13.33;8.00;;;15.00;14.50;;;;;;5102471;27;45928;-65
2022/03/22 13:04:46;;;;;;;10.73;6.97;;;15.00;13.70;;;;;;5104302;27;46420;-65
2022/03/22 13:07:19;;;;;;;12.10;7.20;;;15.00;14.00;;;;;;5112236;27;46477;-65
2022/03/22 13:12:33;;;;;;;9.80;6.77;;;15.10;13.30;;;;;;5116177;27;46098;-65
2022/03/22 13:15:04;;;;;;;23.53;7.43;;;15.10;13.20;;;;;;5104308;27;47913;-64
2022/03/22 13:17:45;;;;;;;13.33;7.90;;;15.20;13.40;;;;;;5102556;27;46588;-66